createdAt,value
2018-11-28T00:00:50.538Z,80.88
2018-11-28T00:01:57.345Z,80.94
2018-11-28T00:03:04.167Z,80.99
2018-11-28T00:04:11.060Z,81.00
2018-11-28T00:05:17.853Z,81.10
2018-11-28T00:06:24.625Z,81.23
2018-11-28T00:07:31.401Z,81.33
2018-11-28T00:08:38.160Z,81.46
2018-11-28T00:09:44.917Z,81.57
2018-11-28T00:10:51.656Z,81.67
2018-11-28T00:11:58.417Z,81.73
2018-11-28T00:13:05.201Z,81.85
2018-11-28T00:14:11.983Z,81.93
2018-11-28T00:15:18.844Z,81.93
2018-11-28T00:16:25.649Z,81.92
2018-11-28T00:17:32.408Z,81.90
2018-11-28T00:18:39.434Z,81.88
2018-11-28T00:19:46.219Z,81.86
2018-11-28T00:20:53.040Z,81.87
2018-11-28T00:21:59.804Z,81.87
2018-11-28T00:23:06.646Z,81.87
2018-11-28T00:24:13.444Z,81.87
2018-11-28T00:25:20.186Z,81.91
2018-11-28T00:26:26.985Z,81.91
2018-11-28T00:27:33.718Z,81.92
2018-11-28T00:28:40.542Z,81.94
2018-11-28T00:29:47.372Z,81.97
2018-11-28T00:30:54.103Z,81.96
2018-11-28T00:32:00.940Z,81.99
2018-11-28T00:33:07.721Z,82.00
2018-11-28T00:34:14.497Z,81.99
2018-11-28T00:35:21.197Z,82.01
2018-11-28T00:36:28.217Z,82.03
2018-11-28T00:37:34.966Z,82.08
2018-11-28T00:38:41.779Z,82.10
2018-11-28T00:39:48.505Z,82.08
2018-11-28T00:40:55.256Z,82.11
2018-11-28T00:42:02.046Z,82.15
2018-11-28T00:43:08.821Z,82.18
2018-11-28T00:44:15.605Z,82.17
2018-11-28T00:45:22.354Z,82.21
2018-11-28T00:46:29.200Z,82.24
2018-11-28T00:47:35.975Z,82.26
2018-11-28T00:48:42.764Z,82.27
2018-11-28T00:49:49.498Z,82.29
2018-11-28T00:50:56.572Z,82.36
2018-11-28T00:52:03.400Z,82.36
2018-11-28T00:53:10.172Z,82.37
2018-11-28T00:54:16.952Z,82.38
2018-11-28T00:55:23.676Z,82.42
2018-11-28T00:56:30.470Z,82.45
2018-11-28T00:57:37.252Z,82.44
2018-11-28T00:58:44.053Z,82.49
2018-11-28T00:59:50.917Z,82.51
2018-11-28T01:00:57.676Z,82.51
2018-11-28T01:02:04.440Z,82.52
2018-11-28T01:03:11.197Z,82.56
2018-11-28T01:04:17.960Z,82.56
2018-11-28T01:05:24.754Z,82.62
2018-11-28T01:06:31.537Z,82.63
2018-11-28T01:07:38.363Z,82.62
2018-11-28T01:08:45.504Z,82.65
2018-11-28T01:09:52.302Z,82.65
2018-11-28T01:10:59.039Z,82.64
2018-11-28T01:12:05.905Z,82.69
2018-11-28T01:13:12.661Z,82.70
2018-11-28T01:14:19.399Z,82.71
2018-11-28T01:15:26.156Z,82.73
2018-11-28T01:16:32.951Z,82.76
2018-11-28T01:17:39.713Z,82.78
2018-11-28T01:18:46.720Z,82.79
2018-11-28T01:19:53.501Z,82.80
2018-11-28T01:21:00.251Z,82.81
2018-11-28T01:22:06.994Z,82.86
2018-11-28T01:23:13.800Z,82.90
2018-11-28T01:24:20.560Z,82.87
2018-11-28T01:25:27.340Z,82.94
2018-11-28T01:26:34.091Z,82.96
2018-11-28T01:27:40.849Z,82.97
2018-11-28T01:28:47.722Z,82.94
2018-11-28T01:29:54.490Z,82.97
2018-11-28T01:31:01.261Z,82.98
2018-11-28T01:32:08.037Z,83.00
2018-11-28T01:33:14.782Z,83.02
2018-11-28T01:34:21.547Z,83.02
2018-11-28T01:35:28.317Z,83.06
2018-11-28T01:36:35.064Z,83.07
2018-11-28T01:37:41.849Z,83.09
2018-11-28T01:38:48.789Z,83.06
2018-11-28T01:39:55.545Z,83.12
2018-11-28T01:41:02.344Z,83.12
2018-11-28T01:42:09.277Z,83.13
2018-11-28T01:43:16.024Z,83.13
2018-11-28T01:44:22.799Z,83.17
2018-11-28T01:45:29.611Z,83.18
2018-11-28T01:46:36.364Z,83.24
2018-11-28T01:47:43.142Z,83.27
2018-11-28T01:48:50.060Z,83.32
2018-11-28T01:49:56.796Z,83.42
2018-11-28T01:51:03.567Z,83.47
2018-11-28T01:52:10.419Z,83.51
2018-11-28T01:53:17.168Z,83.58
2018-11-28T01:54:23.937Z,83.61
2018-11-28T01:55:30.701Z,83.69
2018-11-28T01:56:37.496Z,83.70
2018-11-28T01:57:44.239Z,83.75
2018-11-28T01:58:51.028Z,83.76
2018-11-28T01:59:57.877Z,83.80
2018-11-28T02:01:04.643Z,83.84
2018-11-28T02:02:11.421Z,83.84
2018-11-28T02:03:18.289Z,83.85
2018-11-28T02:04:25.013Z,83.82
2018-11-28T02:05:31.765Z,83.79
2018-11-28T02:06:38.714Z,83.77
2018-11-28T02:07:45.488Z,83.77
2018-11-28T02:08:52.256Z,83.75
2018-11-28T02:09:59.108Z,83.74
2018-11-28T02:11:05.890Z,83.71
2018-11-28T02:12:12.621Z,83.68
2018-11-28T02:13:19.387Z,83.70
2018-11-28T02:14:26.199Z,83.68
2018-11-28T02:15:33.018Z,83.70
2018-11-28T02:16:39.796Z,83.70
2018-11-28T02:17:46.621Z,83.67
2018-11-28T02:18:53.357Z,83.69
2018-11-28T02:20:00.144Z,83.70
2018-11-28T02:21:07.032Z,83.68
2018-11-28T02:22:13.773Z,83.67
2018-11-28T02:23:20.549Z,83.71
2018-11-28T02:24:27.413Z,83.70
2018-11-28T02:25:34.146Z,83.73
2018-11-28T02:26:40.949Z,83.70
2018-11-28T02:27:47.698Z,83.69
2018-11-28T02:28:54.468Z,83.71
2018-11-28T02:30:01.259Z,83.73
2018-11-28T02:31:08.423Z,83.72
2018-11-28T02:32:15.197Z,83.76
2018-11-28T02:33:21.881Z,83.79
2018-11-28T02:34:28.612Z,83.80
2018-11-28T02:35:35.368Z,83.80
2018-11-28T02:36:42.168Z,83.81
2018-11-28T02:37:49.005Z,83.82
2018-11-28T02:38:55.772Z,83.82
2018-11-28T02:40:02.539Z,83.86
2018-11-28T02:41:09.206Z,83.86
2018-11-28T02:42:16.038Z,83.88
2018-11-28T02:43:22.777Z,83.90
2018-11-28T02:44:29.524Z,83.91
2018-11-28T02:45:36.260Z,83.94
2018-11-28T02:46:43.085Z,83.92
2018-11-28T02:47:49.832Z,83.91
2018-11-28T02:48:56.619Z,83.91
2018-11-28T02:50:03.464Z,83.92
2018-11-28T02:51:10.434Z,83.93
2018-11-28T02:52:17.240Z,83.95
2018-11-28T02:53:23.997Z,83.96
2018-11-28T02:54:30.783Z,83.97
2018-11-28T02:55:37.648Z,83.98
2018-11-28T02:56:44.482Z,83.98
2018-11-28T02:57:51.251Z,84.02
2018-11-28T02:58:58.061Z,84.03
2018-11-28T03:00:04.830Z,84.05
2018-11-28T03:01:11.961Z,84.05
2018-11-28T03:02:18.737Z,84.07
2018-11-28T03:03:25.589Z,84.09
2018-11-28T03:04:32.352Z,84.10
2018-11-28T03:05:39.106Z,84.11
2018-11-28T03:06:46.015Z,84.11
2018-11-28T03:07:52.815Z,84.09
2018-11-28T03:08:59.600Z,84.10
2018-11-28T03:10:06.440Z,84.11
2018-11-28T03:11:13.357Z,84.10
2018-11-28T03:12:20.216Z,84.09
2018-11-28T03:13:26.940Z,84.10
2018-11-28T03:14:33.714Z,84.08
2018-11-28T03:15:40.482Z,84.07
2018-11-28T03:16:47.596Z,84.06
2018-11-28T03:17:54.413Z,84.07
2018-11-28T03:19:01.196Z,84.07
2018-11-28T03:20:07.970Z,84.08
2018-11-28T03:21:14.935Z,84.08
2018-11-28T03:22:21.736Z,84.10
2018-11-28T03:23:28.595Z,84.07
2018-11-28T03:24:35.348Z,84.05
2018-11-28T03:25:42.122Z,84.07
2018-11-28T03:26:48.991Z,84.08
2018-11-28T03:27:55.753Z,84.08
2018-11-28T03:29:02.513Z,84.08
2018-11-28T03:30:09.461Z,84.08
2018-11-28T03:31:16.511Z,84.07
2018-11-28T03:32:23.305Z,84.05
2018-11-28T03:33:30.123Z,84.05
2018-11-28T03:34:37.156Z,84.08
2018-11-28T03:35:43.991Z,84.07
2018-11-28T03:36:50.796Z,84.08
2018-11-28T03:37:57.585Z,84.10
2018-11-28T03:39:04.365Z,84.10
2018-11-28T03:40:11.188Z,84.08
2018-11-28T03:41:18.704Z,84.10
2018-11-28T03:42:24.983Z,84.08
2018-11-28T03:43:31.886Z,84.07
2018-11-28T03:44:38.754Z,84.08
2018-11-28T03:45:45.616Z,84.10
2018-11-28T03:46:52.433Z,84.06
2018-11-28T03:47:59.169Z,84.05
2018-11-28T03:49:06.043Z,84.07
2018-11-28T03:50:12.819Z,84.08
2018-11-28T03:51:19.760Z,84.07
2018-11-28T03:52:26.505Z,84.06
2018-11-28T03:53:33.330Z,84.07
2018-11-28T03:54:40.133Z,84.07
2018-11-28T03:55:46.884Z,84.09
2018-11-28T03:56:53.673Z,84.08
2018-11-28T03:58:00.433Z,84.07
2018-11-28T03:59:07.226Z,84.06
2018-11-28T04:00:13.986Z,84.05
2018-11-28T04:01:20.760Z,84.06
2018-11-28T04:02:27.543Z,84.06
2018-11-28T04:03:34.301Z,84.05
2018-11-28T04:04:41.127Z,84.05
2018-11-28T04:05:48.039Z,84.06
2018-11-28T04:06:54.813Z,84.04
2018-11-28T04:08:01.637Z,84.03
2018-11-28T04:09:08.864Z,84.03
2018-11-28T04:10:15.554Z,84.04
2018-11-28T04:11:22.341Z,84.02
2018-11-28T04:12:29.169Z,84.02
2018-11-28T04:13:35.918Z,84.03
2018-11-28T04:14:42.744Z,84.04
2018-11-28T04:15:49.585Z,84.02
2018-11-28T04:16:56.748Z,83.99
2018-11-28T04:18:03.516Z,83.98
2018-11-28T04:19:10.296Z,83.99
2018-11-28T04:20:17.135Z,83.96
2018-11-28T04:21:24.272Z,83.98
2018-11-28T04:22:31.029Z,83.96
2018-11-28T04:23:37.838Z,83.97
2018-11-28T04:24:44.676Z,83.94
2018-11-28T04:25:51.416Z,83.94
2018-11-28T04:26:58.185Z,83.95
2018-11-28T04:28:05.053Z,83.91
2018-11-28T04:29:11.824Z,83.90
2018-11-28T04:30:18.621Z,83.90
2018-11-28T04:31:25.291Z,83.90
2018-11-28T04:32:32.073Z,83.90
2018-11-28T04:33:38.849Z,83.88
2018-11-28T04:34:45.662Z,83.87
2018-11-28T04:35:52.444Z,83.88
2018-11-28T04:36:59.212Z,83.87
2018-11-28T04:38:06.000Z,83.86
2018-11-28T04:39:12.748Z,83.84
2018-11-28T04:40:19.534Z,83.84
2018-11-28T04:41:26.398Z,83.84
2018-11-28T04:42:33.241Z,83.82
2018-11-28T04:43:40.017Z,83.83
2018-11-28T04:44:46.803Z,83.81
2018-11-28T04:45:53.662Z,83.81
2018-11-28T04:47:00.412Z,83.80
2018-11-28T04:48:07.284Z,83.79
2018-11-28T04:49:14.086Z,83.79
2018-11-28T04:50:21.010Z,83.79
2018-11-28T04:51:27.852Z,83.75
2018-11-28T04:52:34.635Z,83.76
2018-11-28T04:53:41.453Z,83.75
2018-11-28T04:54:48.280Z,83.75
2018-11-28T04:55:55.056Z,83.76
2018-11-28T04:57:01.853Z,83.76
2018-11-28T04:58:08.800Z,83.75
2018-11-28T04:59:15.527Z,83.73
2018-11-28T05:00:22.303Z,83.76
2018-11-28T05:01:28.963Z,83.82
2018-11-28T05:02:35.760Z,83.82
2018-11-28T05:03:42.614Z,83.82
2018-11-28T05:04:49.345Z,83.81
2018-11-28T05:05:56.212Z,83.82
2018-11-28T05:07:02.969Z,83.77
2018-11-28T05:08:09.969Z,83.75
2018-11-28T05:09:16.720Z,83.76
2018-11-28T05:10:23.595Z,83.75
2018-11-28T05:11:30.465Z,83.73
2018-11-28T05:12:37.250Z,83.72
2018-11-28T05:13:44.036Z,83.71
2018-11-28T05:14:50.813Z,83.71
2018-11-28T05:15:57.680Z,83.66
2018-11-28T05:17:04.447Z,83.62
2018-11-28T05:18:11.224Z,83.64
2018-11-28T05:19:17.980Z,83.60
2018-11-28T05:20:24.775Z,83.57
2018-11-28T05:21:31.616Z,83.56
2018-11-28T05:22:38.361Z,83.58
2018-11-28T05:23:45.175Z,83.58
2018-11-28T05:24:52.016Z,83.57
2018-11-28T05:25:58.846Z,83.56
2018-11-28T05:27:05.612Z,83.55
2018-11-28T05:28:12.432Z,83.55
2018-11-28T05:29:19.189Z,83.52
2018-11-28T05:30:26.001Z,83.52
2018-11-28T05:31:32.700Z,83.53
2018-11-28T05:32:39.500Z,83.53
2018-11-28T05:33:46.381Z,83.53
2018-11-28T05:34:53.117Z,83.50
2018-11-28T05:35:59.920Z,83.49
2018-11-28T05:37:06.673Z,83.49
2018-11-28T05:38:13.491Z,83.47
2018-11-28T05:39:20.339Z,83.46
2018-11-28T05:40:27.256Z,83.49
2018-11-28T05:41:34.138Z,83.46
2018-11-28T05:42:40.891Z,83.46
2018-11-28T05:43:47.668Z,83.46
2018-11-28T05:44:54.541Z,83.44
2018-11-28T05:46:01.310Z,83.43
2018-11-28T05:47:08.412Z,83.43
2018-11-28T05:48:15.245Z,83.45
2018-11-28T05:49:21.994Z,83.46
2018-11-28T05:50:28.747Z,83.46
2018-11-28T05:51:35.919Z,83.42
2018-11-28T05:52:42.316Z,83.43
2018-11-28T05:53:49.192Z,83.42
2018-11-28T05:54:56.012Z,83.41
2018-11-28T05:56:02.797Z,83.43
2018-11-28T05:57:09.598Z,83.40
2018-11-28T05:58:16.364Z,83.40
2018-11-28T05:59:27.327Z,83.41
2018-11-28T06:00:29.918Z,83.40
2018-11-28T06:01:36.884Z,83.37
2018-11-28T06:02:43.632Z,83.42
2018-11-28T06:03:50.528Z,83.39
2018-11-28T06:04:57.293Z,83.40
2018-11-28T06:06:04.057Z,83.40
2018-11-28T06:07:10.925Z,83.37
2018-11-28T06:08:17.687Z,83.35
2018-11-28T06:09:24.465Z,83.37
2018-11-28T06:10:31.185Z,83.37
2018-11-28T06:11:38.001Z,83.34
2018-11-28T06:12:44.737Z,83.36
2018-11-28T06:13:51.501Z,83.36
2018-11-28T06:14:58.249Z,83.34
2018-11-28T06:16:05.084Z,83.37
2018-11-28T06:17:11.873Z,83.38
2018-11-28T06:18:18.622Z,83.37
2018-11-28T06:19:25.476Z,83.35
2018-11-28T06:20:32.258Z,83.36
2018-11-28T06:21:39.004Z,83.37
2018-11-28T06:22:45.780Z,83.40
2018-11-28T06:23:52.552Z,83.41
2018-11-28T06:24:59.327Z,83.43
2018-11-28T06:26:06.100Z,83.41
2018-11-28T06:27:12.964Z,83.43
2018-11-28T06:28:19.721Z,83.41
2018-11-28T06:29:26.770Z,83.44
2018-11-28T06:30:33.561Z,83.44
2018-11-28T06:31:40.512Z,83.43
2018-11-28T06:32:51.339Z,83.41
2018-11-28T06:33:54.069Z,83.40
2018-11-28T06:35:00.943Z,83.40
2018-11-28T06:36:07.859Z,83.38
2018-11-28T06:37:14.736Z,83.36
2018-11-28T06:38:21.488Z,83.37
2018-11-28T06:39:28.271Z,83.34
2018-11-28T06:40:35.135Z,83.37
2018-11-28T06:41:41.926Z,83.37
2018-11-28T06:42:48.709Z,83.33
2018-11-28T06:43:55.562Z,83.33
2018-11-28T06:45:02.341Z,83.31
2018-11-28T06:46:09.347Z,83.33
2018-11-28T06:47:16.131Z,83.32
2018-11-28T06:48:22.912Z,83.33
2018-11-28T06:49:29.768Z,83.30
2018-11-28T06:50:36.536Z,83.30
2018-11-28T06:51:43.327Z,83.30
2018-11-28T06:52:50.202Z,83.30
2018-11-28T06:53:56.960Z,83.30
2018-11-28T06:55:03.732Z,83.27
2018-11-28T06:56:10.721Z,83.26
2018-11-28T06:57:17.508Z,83.30
2018-11-28T06:58:24.395Z,83.30
2018-11-28T06:59:31.144Z,83.30
2018-11-28T07:00:37.902Z,83.31
2018-11-28T07:01:44.803Z,83.30
2018-11-28T07:02:51.613Z,83.30
2018-11-28T07:03:58.372Z,83.30
2018-11-28T07:05:05.215Z,83.30
2018-11-28T07:06:12.076Z,83.31
2018-11-28T07:07:18.812Z,83.30
2018-11-28T07:08:25.668Z,83.31
2018-11-28T07:09:32.440Z,83.30
2018-11-28T07:10:39.225Z,83.28
2018-11-28T07:11:46.075Z,83.29
2018-11-28T07:12:52.806Z,83.31
2018-11-28T07:13:59.552Z,83.29
2018-11-28T07:15:06.433Z,83.29
2018-11-28T07:16:13.368Z,83.31
2018-11-28T07:17:20.198Z,83.31
2018-11-28T07:18:26.952Z,83.31
2018-11-28T07:19:33.968Z,83.33
2018-11-28T07:20:40.728Z,83.30
2018-11-28T07:21:47.487Z,83.30
2018-11-28T07:22:54.393Z,83.32
2018-11-28T07:24:01.179Z,83.29
2018-11-28T07:25:07.848Z,83.31
2018-11-28T07:26:14.702Z,83.30
2018-11-28T07:27:21.477Z,83.31
2018-11-28T07:28:28.219Z,83.30
2018-11-28T07:29:35.004Z,83.30
2018-11-28T07:30:41.930Z,83.30
2018-11-28T07:31:49.052Z,83.30
2018-11-28T07:32:55.781Z,83.30
2018-11-28T07:34:02.552Z,83.29
2018-11-28T07:35:09.440Z,83.33
2018-11-28T07:36:16.592Z,83.27
2018-11-28T07:37:23.437Z,83.30
2018-11-28T07:38:30.224Z,83.32
2018-11-28T07:39:37.086Z,83.31
2018-11-28T07:40:43.796Z,83.30
2018-11-28T07:41:50.625Z,83.30
2018-11-28T07:42:57.438Z,83.29
2018-11-28T07:44:04.352Z,83.32
2018-11-28T07:45:11.220Z,83.32
2018-11-28T07:46:18.030Z,83.32
2018-11-28T07:47:24.792Z,83.31
2018-11-28T07:48:31.620Z,83.30
2018-11-28T07:49:38.489Z,83.30
2018-11-28T07:50:45.244Z,83.30
2018-11-28T07:51:52.057Z,83.30
2018-11-28T07:52:58.865Z,83.31
2018-11-28T07:54:05.636Z,83.30
2018-11-28T07:55:12.476Z,83.31
2018-11-28T07:56:19.224Z,83.31
2018-11-28T07:57:25.984Z,83.30
2018-11-28T07:58:32.865Z,83.31
2018-11-28T07:59:39.612Z,83.31
2018-11-28T08:00:46.349Z,83.30
2018-11-28T08:01:53.109Z,83.32
2018-11-28T08:02:59.956Z,83.32
2018-11-28T08:04:06.735Z,83.33
2018-11-28T08:05:13.500Z,83.32
2018-11-28T08:06:20.259Z,83.32
2018-11-28T08:07:27.032Z,83.33
2018-11-28T08:08:33.779Z,83.33
2018-11-28T08:09:40.770Z,83.32
2018-11-28T08:10:47.510Z,83.34
2018-11-28T08:11:54.300Z,83.33
2018-11-28T08:13:01.065Z,83.33
2018-11-28T08:14:07.975Z,83.33
2018-11-28T08:15:14.743Z,83.35
2018-11-28T08:16:21.614Z,83.34
2018-11-28T08:17:28.385Z,83.37
2018-11-28T08:18:35.166Z,83.38
2018-11-28T08:19:41.992Z,83.39
2018-11-28T08:20:48.758Z,83.40
2018-11-28T08:21:55.517Z,83.44
2018-11-28T08:23:02.280Z,83.47
2018-11-28T08:24:09.145Z,83.49
2018-11-28T08:25:15.945Z,83.49
2018-11-28T08:26:22.821Z,83.52
2018-11-28T08:27:29.581Z,83.52
2018-11-28T08:28:36.356Z,83.55
2018-11-28T08:29:43.086Z,83.57
2018-11-28T08:30:49.889Z,83.55
2018-11-28T08:31:56.731Z,83.54
2018-11-28T08:33:03.490Z,83.53
2018-11-28T08:34:10.293Z,83.57
2018-11-28T08:35:17.067Z,83.56
2018-11-28T08:36:23.889Z,83.56
2018-11-28T08:37:30.725Z,83.59
2018-11-28T08:38:37.535Z,83.56
2018-11-28T08:39:44.292Z,83.53
2018-11-28T08:40:51.128Z,83.52
2018-11-28T08:41:57.888Z,83.51
2018-11-28T08:43:04.665Z,83.50
2018-11-28T08:44:11.447Z,83.53
2018-11-28T08:45:18.305Z,83.52
2018-11-28T08:46:25.523Z,83.52
2018-11-28T08:47:31.796Z,83.53
2018-11-28T08:48:38.614Z,83.57
2018-11-28T08:49:45.406Z,83.57
2018-11-28T08:50:52.178Z,83.55
2018-11-28T08:51:58.976Z,83.57
2018-11-28T08:53:05.778Z,83.60
2018-11-28T08:54:12.570Z,83.60
2018-11-28T08:55:19.388Z,83.61
2018-11-28T08:56:26.203Z,83.61
2018-11-28T08:57:33.005Z,83.61
2018-11-28T08:58:39.931Z,83.64
2018-11-28T08:59:46.675Z,83.64
2018-11-28T09:00:53.443Z,83.65
2018-11-28T09:02:00.218Z,83.65
2018-11-28T09:03:07.015Z,83.68
2018-11-28T09:04:13.816Z,83.68
2018-11-28T09:05:20.632Z,83.67
2018-11-28T09:06:27.441Z,83.68
2018-11-28T09:07:34.229Z,83.72
2018-11-28T09:08:41.117Z,83.72
2018-11-28T09:09:47.910Z,83.77
2018-11-28T09:10:54.694Z,83.78
2018-11-28T09:12:01.454Z,83.79
2018-11-28T09:13:08.476Z,83.79
2018-11-28T09:14:15.293Z,83.80
2018-11-28T09:15:22.054Z,83.83
2018-11-28T09:16:28.857Z,83.81
2018-11-28T09:17:35.623Z,83.83
2018-11-28T09:18:42.437Z,83.84
2018-11-28T09:19:49.200Z,83.83
2018-11-28T09:20:56.053Z,83.84
2018-11-28T09:22:02.799Z,83.88
2018-11-28T09:23:09.652Z,83.87
2018-11-28T09:24:16.551Z,83.87
2018-11-28T09:25:23.331Z,83.89
2018-11-28T09:26:30.093Z,83.88
2018-11-28T09:27:36.892Z,83.90
2018-11-28T09:28:43.729Z,83.90
2018-11-28T09:29:50.795Z,83.91
2018-11-28T09:30:57.549Z,83.94
2018-11-28T09:32:04.392Z,83.92
2018-11-28T09:33:11.148Z,83.92
2018-11-28T09:34:17.959Z,83.93
2018-11-28T09:35:24.820Z,83.95
2018-11-28T09:36:31.614Z,83.98
2018-11-28T09:37:38.416Z,84.00
2018-11-28T09:38:45.320Z,84.01
2018-11-28T09:39:52.112Z,84.00
2018-11-28T09:40:58.977Z,84.00
2018-11-28T09:42:05.753Z,84.01
2018-11-28T09:43:12.557Z,84.04
2018-11-28T09:44:19.406Z,84.07
2018-11-28T09:45:26.169Z,84.06
2018-11-28T09:46:32.946Z,84.08
2018-11-28T09:47:39.780Z,84.10
2018-11-28T09:48:46.587Z,84.11
2018-11-28T09:49:53.568Z,84.13
2018-11-28T09:51:00.321Z,84.19
2018-11-28T09:52:07.122Z,84.18
2018-11-28T09:53:13.952Z,84.19
2018-11-28T09:54:20.741Z,84.21
2018-11-28T09:55:27.521Z,84.21
2018-11-28T09:56:34.418Z,84.23
2018-11-28T09:57:41.236Z,84.27
2018-11-28T09:58:48.053Z,84.26
2018-11-28T09:59:54.832Z,84.27
2018-11-28T10:01:01.632Z,84.30
2018-11-28T10:02:08.360Z,84.30
2018-11-28T10:03:15.175Z,84.33
2018-11-28T10:04:21.988Z,84.34
2018-11-28T10:05:28.766Z,84.35
2018-11-28T10:06:35.748Z,84.38
2018-11-28T10:07:42.500Z,84.38
2018-11-28T10:08:49.310Z,84.39
2018-11-28T10:09:56.100Z,84.39
2018-11-28T10:11:02.895Z,84.42
2018-11-28T10:12:09.817Z,84.43
2018-11-28T10:13:16.753Z,84.45
2018-11-28T10:14:23.546Z,84.49
2018-11-28T10:15:35.441Z,84.50
2018-11-28T10:16:37.285Z,84.49
2018-11-28T10:17:44.140Z,84.48
2018-11-28T10:18:51.053Z,84.51
2018-11-28T10:19:57.896Z,84.54
2018-11-28T10:21:04.696Z,84.52
2018-11-28T10:22:11.460Z,84.52
2018-11-28T10:23:18.249Z,84.54
2018-11-28T10:24:25.048Z,84.52
2018-11-28T10:25:39.742Z,84.55
2018-11-28T10:26:38.583Z,84.56
2018-11-28T10:27:45.340Z,84.58
2018-11-28T10:28:52.133Z,84.60
2018-11-28T10:29:58.907Z,84.59
2018-11-28T10:31:05.689Z,84.61
2018-11-28T10:32:12.461Z,84.61
2018-11-28T10:33:19.272Z,84.65
2018-11-28T10:34:29.477Z,84.63
2018-11-28T10:35:32.856Z,84.66
2018-11-28T10:36:39.681Z,84.67
2018-11-28T10:37:46.437Z,84.72
2018-11-28T10:38:53.223Z,84.72
2018-11-28T10:40:00.504Z,84.76
2018-11-28T10:41:06.752Z,84.75
2018-11-28T10:42:13.537Z,84.74
2018-11-28T10:43:20.287Z,84.77
2018-11-28T10:44:27.091Z,84.78
2018-11-28T10:45:33.893Z,84.80
2018-11-28T10:46:40.946Z,84.77
2018-11-28T10:47:47.735Z,84.75
2018-11-28T10:48:54.617Z,84.76
2018-11-28T10:50:01.425Z,84.74
2018-11-28T10:51:08.400Z,84.76
2018-11-28T10:52:15.160Z,84.76
2018-11-28T10:53:21.956Z,84.77
2018-11-28T10:54:28.761Z,84.75
2018-11-28T10:55:35.527Z,84.72
2018-11-28T10:56:42.334Z,84.78
2018-11-28T10:57:49.147Z,84.73
2018-11-28T10:58:55.944Z,84.76
2018-11-28T11:00:02.704Z,84.76
2018-11-28T11:01:09.830Z,84.77
2018-11-28T11:02:16.747Z,84.77
2018-11-28T11:03:23.801Z,84.76
2018-11-28T11:04:30.641Z,84.76
2018-11-28T11:05:37.738Z,84.79
2018-11-28T11:06:44.749Z,84.78
2018-11-28T11:07:51.652Z,84.76
2018-11-28T11:08:58.532Z,84.77
2018-11-28T11:10:05.284Z,84.75
2018-11-28T11:11:12.237Z,84.77
2018-11-28T11:12:19.236Z,84.79
2018-11-28T11:13:26.119Z,84.78
2018-11-28T11:14:32.965Z,84.79
2018-11-28T11:15:39.932Z,84.82
2018-11-28T11:16:46.731Z,84.81
2018-11-28T11:17:53.520Z,84.81
2018-11-28T11:19:00.285Z,84.83
2018-11-28T11:20:07.120Z,84.85
2018-11-28T11:21:13.961Z,84.84
2018-11-28T11:22:20.728Z,84.84
2018-11-28T11:23:27.560Z,84.83
2018-11-28T11:24:34.550Z,84.84
2018-11-28T11:25:41.357Z,84.89
2018-11-28T11:26:48.164Z,84.90
2018-11-28T11:27:55.006Z,84.89
2018-11-28T11:29:01.856Z,84.91
2018-11-28T11:30:08.652Z,84.93
2018-11-28T11:31:15.519Z,84.96
2018-11-28T11:32:22.245Z,84.99
2018-11-28T11:33:29.016Z,85.01
2018-11-28T11:34:35.775Z,84.96
2018-11-28T11:35:42.643Z,84.99
2018-11-28T11:36:49.388Z,84.99
2018-11-28T11:37:56.169Z,84.97
2018-11-28T11:39:03.022Z,84.99
2018-11-28T11:40:09.860Z,85.01
2018-11-28T11:41:16.829Z,85.01
2018-11-28T11:42:23.649Z,85.02
2018-11-28T11:43:30.421Z,85.01
2018-11-28T11:44:37.197Z,85.02
2018-11-28T11:45:43.958Z,85.02
2018-11-28T11:46:50.773Z,85.01
2018-11-28T11:47:57.577Z,85.01
2018-11-28T11:49:04.362Z,85.01
2018-11-28T11:50:11.161Z,84.99
2018-11-28T11:51:18.021Z,85.03
2018-11-28T11:52:24.805Z,85.03
2018-11-28T11:53:31.574Z,85.01
2018-11-28T11:54:38.414Z,85.02
2018-11-28T11:55:45.274Z,85.04
2018-11-28T11:56:52.068Z,85.06
2018-11-28T11:57:58.897Z,85.06
2018-11-28T11:59:05.750Z,85.06
2018-11-28T12:00:12.617Z,85.09
2018-11-28T12:01:19.802Z,85.11
2018-11-28T12:02:26.593Z,85.13
2018-11-28T12:03:33.336Z,85.12
2018-11-28T12:04:40.140Z,85.11
2018-11-28T12:05:46.904Z,85.09
2018-11-28T12:06:53.717Z,85.08
2018-11-28T12:08:00.553Z,85.08
2018-11-28T12:09:07.405Z,85.06
2018-11-28T12:10:14.172Z,85.03
2018-11-28T12:11:20.978Z,85.02
2018-11-28T12:12:28.324Z,85.01
2018-11-28T12:13:34.538Z,84.99
2018-11-28T12:14:41.936Z,85.00
2018-11-28T12:15:48.473Z,84.99
2018-11-28T12:16:55.384Z,84.98
2018-11-28T12:18:02.212Z,84.99
2018-11-28T12:19:09.186Z,85.00
2018-11-28T12:20:15.987Z,85.00
2018-11-28T12:21:22.726Z,84.97
2018-11-28T12:22:29.533Z,85.00
2018-11-28T12:23:36.397Z,84.97
2018-11-28T12:24:43.217Z,84.96
2018-11-28T12:25:50.012Z,84.96
2018-11-28T12:26:56.862Z,84.95
2018-11-28T12:28:03.694Z,84.94
2018-11-28T12:29:10.625Z,84.95
2018-11-28T12:30:17.438Z,84.94
2018-11-28T12:31:24.225Z,84.96
2018-11-28T12:32:31.020Z,84.92
2018-11-28T12:33:37.838Z,84.94
2018-11-28T12:34:50.302Z,84.92
2018-11-28T12:35:51.392Z,84.94
2018-11-28T12:36:58.185Z,84.95
2018-11-28T12:38:04.940Z,84.94
2018-11-28T12:39:11.780Z,84.94
2018-11-28T12:40:18.565Z,84.92
2018-11-28T12:41:25.569Z,84.94
2018-11-28T12:42:32.324Z,84.92
2018-11-28T12:43:39.105Z,84.91
2018-11-28T12:44:45.965Z,84.93
2018-11-28T12:45:52.710Z,84.91
2018-11-28T12:46:59.503Z,84.92
2018-11-28T12:48:06.641Z,84.93
2018-11-28T12:49:13.504Z,84.96
2018-11-28T12:50:20.249Z,84.93
2018-11-28T12:51:26.999Z,84.94
2018-11-28T12:52:33.924Z,84.95
2018-11-28T12:53:40.706Z,84.92
2018-11-28T12:54:47.463Z,84.92
2018-11-28T12:55:54.297Z,84.93
2018-11-28T12:57:01.061Z,84.95
2018-11-28T12:58:08.059Z,84.96
2018-11-28T12:59:14.992Z,84.95
2018-11-28T13:00:21.828Z,84.96
2018-11-28T13:01:28.782Z,84.95
2018-11-28T13:02:35.376Z,84.96
2018-11-28T13:03:42.239Z,84.96
2018-11-28T13:04:49.054Z,84.95
2018-11-28T13:05:55.805Z,84.97
2018-11-28T13:07:02.708Z,84.99
2018-11-28T13:08:09.844Z,85.00
2018-11-28T13:09:16.600Z,85.01
2018-11-28T13:10:23.399Z,85.00
2018-11-28T13:11:30.229Z,85.01
2018-11-28T13:12:37.008Z,85.03
2018-11-28T13:13:44.696Z,85.00
2018-11-28T13:14:50.973Z,85.00
2018-11-28T13:15:57.776Z,85.02
2018-11-28T13:17:04.547Z,85.02
2018-11-28T13:18:11.367Z,85.04
2018-11-28T13:19:18.189Z,85.05
2018-11-28T13:20:24.956Z,85.07
2018-11-28T13:21:31.798Z,85.07
2018-11-28T13:22:38.637Z,85.04
2018-11-28T13:23:45.507Z,85.05
2018-11-28T13:24:52.273Z,85.06
2018-11-28T13:25:59.044Z,85.08
2018-11-28T13:27:05.838Z,85.07
2018-11-28T13:28:12.621Z,85.08
2018-11-28T13:29:19.449Z,85.06
2018-11-28T13:30:26.223Z,85.10
2018-11-28T13:31:33.040Z,85.10
2018-11-28T13:32:39.849Z,85.12
2018-11-28T13:33:47.090Z,85.10
2018-11-28T13:34:53.916Z,85.10
2018-11-28T13:36:00.740Z,85.13
2018-11-28T13:37:07.543Z,85.12
2018-11-28T13:38:14.337Z,85.10
2018-11-28T13:39:21.169Z,85.08
2018-11-28T13:40:27.912Z,85.04
2018-11-28T13:41:34.707Z,85.05
2018-11-28T13:42:41.590Z,85.06
2018-11-28T13:43:48.413Z,85.05
2018-11-28T13:44:55.181Z,85.05
2018-11-28T13:46:07.072Z,85.05
2018-11-28T13:47:09.210Z,85.02
2018-11-28T13:48:16.008Z,85.02
2018-11-28T13:49:22.913Z,85.02
2018-11-28T13:50:29.730Z,85.01
2018-11-28T13:51:36.501Z,85.00
2018-11-28T13:52:43.328Z,85.00
2018-11-28T13:53:50.138Z,85.00
2018-11-28T13:57:10.894Z,84.96
2018-11-28T13:58:17.343Z,84.97
2018-11-28T13:59:24.180Z,84.98
2018-11-28T14:00:31.057Z,85.01
2018-11-28T14:01:37.920Z,84.98
2018-11-28T14:02:44.716Z,84.99
2018-11-28T14:03:51.522Z,85.01
2018-11-28T14:04:58.360Z,85.01
2018-11-28T14:06:05.133Z,85.03
2018-11-28T14:07:11.985Z,85.06
2018-11-28T14:08:18.774Z,85.11
2018-11-28T14:09:25.585Z,85.12
2018-11-28T14:10:32.329Z,85.15
2018-11-28T14:11:39.202Z,85.15
2018-11-28T14:12:46.012Z,85.16
2018-11-28T14:13:52.961Z,85.15
2018-11-28T14:14:59.726Z,85.16
2018-11-28T14:16:06.773Z,85.16
2018-11-28T14:17:13.627Z,85.17
2018-11-28T14:18:20.517Z,85.16
2018-11-28T14:19:27.693Z,85.14
2018-11-28T14:20:33.963Z,85.14
2018-11-28T14:21:40.702Z,85.14
2018-11-28T14:22:47.598Z,85.15